sensor_id;sensor_type;location;lat;lon;timestamp;pressure;altitude;pressure_sealevel;temperature;humidity
48553;BME280;34335;51.566;6.994;2023-02-23T00:00:24;100681.91;;;8.38;100.00
48553;BME280;34335;51.566;6.994;2023-02-23T00:02:54;100688.78;;;8.38;100.00
48553;BME280;34335;51.566;6.994;2023-02-23T00:05:21;100687.06;;;8.37;100.00
48553;BME280;34335;51.566;6.994;2023-02-23T00:07:47;100681.91;;;8.38;100.00
48553;BME280;34335;51.566;6.994;2023-02-23T00:10:13;100684.44;;;8.31;100.00
48553;BME280;34335;51.566;6.994;2023-02-23T00:12:40;100690.50;;;8.33;100.00
48553;BME280;34335;51.566;6.994;2023-02-23T00:15:06;100688.75;;;8.33;100.00
48553;BME280;34335;51.566;6.994;2023-02-23T00:17:32;100687.19;;;8.48;100.00
48553;BME280;34335;51.566;6.994;2023-02-23T00:19:57;100681.94;;;8.43;100.00
48553;BME280;34335;51.566;6.994;2023-02-23T00:22:24;100670.69;;;8.41;100.00
48553;BME280;34335;51.566;6.994;2023-02-23T00:24:50;100679.31;;;8.38;100.00
48553;BME280;34335;51.566;6.994;2023-02-23T00:27:15;100681.94;;;8.41;100.00
48553;BME280;34335;51.566;6.994;2023-02-23T00:29:45;100680.16;;;8.37;100.00
48553;BME280;34335;51.566;6.994;2023-02-23T00:32:13;100683.66;;;8.39;100.00
48553;BME280;34335;51.566;6.994;2023-02-23T00:34:44;100666.34;;;8.40;100.00
48553;BME280;34335;51.566;6.994;2023-02-23T00:37:09;100673.25;;;8.35;100.00
48553;BME280;34335;51.566;6.994;2023-02-23T00:39:36;100677.50;;;8.28;100.00
48553;BME280;34335;51.566;6.994;2023-02-23T00:42:02;100674.09;;;8.34;100.00
48553;BME280;34335;51.566;6.994;2023-02-23T00:44:28;100667.13;;;8.26;100.00
48553;BME280;34335;51.566;6.994;2023-02-23T00:46:53;100670.63;;;8.30;100.00
48553;BME280;34335;51.566;6.994;2023-02-23T00:49:20;100674.84;;;8.20;100.00
48553;BME280;34335;51.566;6.994;2023-02-23T00:51:47;100666.22;;;8.23;100.00
48553;BME280;34335;51.566;6.994;2023-02-23T00:54:13;100673.09;;;8.18;100.00
48553;BME280;34335;51.566;6.994;2023-02-23T00:56:39;100668.72;;;8.12;100.00
48553;BME280;34335;51.566;6.994;2023-02-23T00:59:05;100669.44;;;7.94;100.00
48553;BME280;34335;51.566;6.994;2023-02-23T01:01:30;100667.75;;;7.99;100.00
48553;BME280;34335;51.566;6.994;2023-02-23T01:03:56;100672.09;;;8.03;100.00
48553;BME280;34335;51.566;6.994;2023-02-23T01:06:21;100672.94;;;7.99;100.00
48553;BME280;34335;51.566;6.994;2023-02-23T01:08:49;100672.94;;;7.99;100.00
48553;BME280;34335;51.566;6.994;2023-02-23T01:11:20;100668.66;;;8.04;100.00
48553;BME280;34335;51.566;6.994;2023-02-23T01:13:46;100674.69;;;8.00;100.00
48553;BME280;34335;51.566;6.994;2023-02-23T01:16:14;100673.78;;;8.00;100.00
48553;BME280;34335;51.566;6.994;2023-02-23T01:18:41;100673.75;;;7.95;100.00
48553;BME280;34335;51.566;6.994;2023-02-23T01:21:18;100670.34;;;7.99;100.00
48553;BME280;34335;51.566;6.994;2023-02-23T01:23:43;100672.94;;;7.99;100.00
48553;BME280;34335;51.566;6.994;2023-02-23T01:26:19;100672.09;;;8.02;100.00
48553;BME280;34335;51.566;6.994;2023-02-23T01:28:56;100672.13;;;8.05;100.00
48553;BME280;34335;51.566;6.994;2023-02-23T01:31:24;100668.69;;;8.07;100.00
48553;BME280;34335;51.566;6.994;2023-02-23T01:33:54;100668.72;;;8.14;100.00
48553;BME280;34335;51.566;6.994;2023-02-23T01:36:20;100670.50;;;8.19;100.00
48553;BME280;34335;51.566;6.994;2023-02-23T01:38:45;100674.00;;;8.21;100.00
48553;BME280;34335;51.566;6.994;2023-02-23T01:41:11;100674.03;;;8.24;100.00
48553;BME280;34335;51.566;6.994;2023-02-23T01:44:00;100673.06;;;8.13;100.00
48553;BME280;34335;51.566;6.994;2023-02-23T01:46:30;100668.78;;;8.17;100.00
48553;BME280;34335;51.566;6.994;2023-02-23T01:48:56;100673.13;;;8.21;100.00
48553;BME280;34335;51.566;6.994;2023-02-23T01:51:24;100676.66;;;8.29;100.00
48553;BME280;34335;51.566;6.994;2023-02-23T01:53:55;100665.47;;;8.36;100.00
48553;BME280;34335;51.566;6.994;2023-02-23T01:56:27;100672.44;;;8.42;100.00
48553;BME280;34335;51.566;6.994;2023-02-23T01:58:56;100664.66;;;8.43;100.00
48553;BME280;34335;51.566;6.994;2023-02-23T02:01:23;100672.47;;;8.47;100.00
48553;BME280;34335;51.566;6.994;2023-02-23T02:03:57;100669.94;;;8.50;100.00
48553;BME280;34335;51.566;6.994;2023-02-23T02:06:22;100672.53;;;8.53;100.00
48553;BME280;34335;51.566;6.994;2023-02-23T02:08:51;100663.00;;;8.52;100.00
48553;BME280;34335;51.566;6.994;2023-02-23T02:11:20;100668.22;;;8.53;100.00
48553;BME280;34335;51.566;6.994;2023-02-23T02:14:07;100668.22;;;8.55;100.00
48553;BME280;34335;51.566;6.994;2023-02-23T02:17:25;100663.94;;;8.55;100.00
48553;BME280;34335;51.566;6.994;2023-02-23T02:25:26;100663.91;;;8.52;100.00
48553;BME280;34335;51.566;6.994;2023-02-23T02:28:16;100663.91;;;8.54;100.00
48553;BME280;34335;51.566;6.994;2023-02-23T02:36:57;100663.06;;;8.60;100.00
48553;BME280;34335;51.566;6.994;2023-02-23T02:42:37;100655.28;;;8.58;100.00
48553;BME280;34335;51.566;6.994;2023-02-23T02:45:21;100653.63;;;8.65;100.00
48553;BME280;34335;51.566;6.994;2023-02-23T02:47:59;100658.72;;;8.51;100.00
48553;BME280;34335;51.566;6.994;2023-02-23T02:50:44;100655.09;;;8.38;100.00
48553;BME280;34335;51.566;6.994;2023-02-23T02:53:17;100661.09;;;8.29;100.00
48553;BME280;34335;51.566;6.994;2023-02-23T02:55:46;100655.88;;;8.26;100.00
48553;BME280;34335;51.566;6.994;2023-02-23T02:58:13;100660.22;;;8.29;100.00
48553;BME280;34335;51.566;6.994;2023-02-23T03:00:41;100656.72;;;8.17;100.00
48553;BME280;34335;51.566;6.994;2023-02-23T03:06:43;100659.16;;;8.02;100.00
48553;BME280;34335;51.566;6.994;2023-02-23T03:09:41;100665.97;;;7.95;100.00
48553;BME280;34335;51.566;6.994;2023-02-23T03:12:40;100657.41;;;7.99;100.00
48553;BME280;34335;51.566;6.994;2023-02-23T03:15:44;100660.13;;;8.13;100.00
48553;BME280;34335;51.566;6.994;2023-02-23T03:19:03;100660.88;;;8.01;100.00
48553;BME280;34335;51.566;6.994;2023-02-23T03:21:55;100658.22;;;7.95;100.00
48553;BME280;34335;51.566;6.994;2023-02-23T03:25:08;100661.53;;;7.78;100.00
48553;BME280;34335;51.566;6.994;2023-02-23T03:30:56;100662.41;;;7.82;100.00
48553;BME280;34335;51.566;6.994;2023-02-23T03:33:53;100673.56;;;7.73;100.00
48553;BME280;34335;51.566;6.994;2023-02-23T03:36:43;100670.19;;;7.82;100.00
48553;BME280;34335;51.566;6.994;2023-02-23T03:39:34;100667.63;;;7.84;100.00
48553;BME280;34335;51.566;6.994;2023-02-23T03:42:22;100665.91;;;7.86;100.00
48553;BME280;34335;51.566;6.994;2023-02-23T03:45:10;100672.84;;;7.90;100.00
48553;BME280;34335;51.566;6.994;2023-02-23T03:47:56;100666.81;;;7.91;100.00
48553;BME280;34335;51.566;6.994;2023-02-23T03:50:46;100673.66;;;7.86;100.00
48553;BME280;34335;51.566;6.994;2023-02-23T03:53:58;100671.91;;;7.82;100.00
48553;BME280;34335;51.566;6.994;2023-02-23T03:56:47;100671.91;;;7.82;100.00
48553;BME280;34335;51.566;6.994;2023-02-23T03:59:39;100678.00;;;7.84;100.00
48553;BME280;34335;51.566;6.994;2023-02-23T04:02:24;100676.28;;;7.89;100.00
48553;BME280;34335;51.566;6.994;2023-02-23T04:05:15;100674.59;;;7.92;100.00
48553;BME280;34335;51.566;6.994;2023-02-23T04:08:02;100676.38;;;7.98;100.00
48553;BME280;34335;51.566;6.994;2023-02-23T04:10:55;100673.78;;;7.97;100.00
48553;BME280;34335;51.566;6.994;2023-02-23T04:13:42;100672.00;;;7.94;100.00
48553;BME280;34335;51.566;6.994;2023-02-23T04:16:09;100671.19;;;7.98;100.00
48553;BME280;34335;51.566;6.994;2023-02-23T04:18:37;100674.66;;;7.97;100.00
48553;BME280;34335;51.566;6.994;2023-02-23T04:21:04;100678.16;;;8.05;100.00
48553;BME280;34335;51.566;6.994;2023-02-23T04:23:30;100682.31;;;7.89;100.00
48553;BME280;34335;51.566;6.994;2023-02-23T04:25:55;100673.72;;;7.87;100.00
48553;BME280;34335;51.566;6.994;2023-02-23T04:28:22;100688.34;;;7.84;100.00
48553;BME280;34335;51.566;6.994;2023-02-23T04:30:48;100684.88;;;7.82;100.00
48553;BME280;34335;51.566;6.994;2023-02-23T04:33:14;100685.72;;;7.79;100.00
48553;BME280;34335;51.566;6.994;2023-02-23T04:35:39;100681.44;;;7.86;100.00
48553;BME280;34335;51.566;6.994;2023-02-23T04:38:05;100688.34;;;7.87;100.00
48553;BME280;34335;51.566;6.994;2023-02-23T04:40:30;100681.53;;;7.93;100.00
48553;BME280;34335;51.566;6.994;2023-02-23T04:42:56;100685.91;;;8.01;100.00
48553;BME280;34335;51.566;6.994;2023-02-23T04:45:22;100685.94;;;8.05;100.00
48553;BME280;34335;51.566;6.994;2023-02-23T04:47:48;100683.38;;;8.07;100.00
48553;BME280;34335;51.566;6.994;2023-02-23T04:50:14;100683.25;;;7.94;100.00
48553;BME280;34335;51.566;6.994;2023-02-23T04:52:40;100682.31;;;7.88;100.00
48553;BME280;34335;51.566;6.994;2023-02-23T04:55:05;100686.66;;;7.90;100.00
48553;BME280;34335;51.566;6.994;2023-02-23T04:57:32;100684.06;;;7.87;100.00
48553;BME280;34335;51.566;6.994;2023-02-23T04:59:57;100683.97;;;7.79;100.00
48553;BME280;34335;51.566;6.994;2023-02-23T05:02:22;100674.41;;;7.72;100.00
48553;BME280;34335;51.566;6.994;2023-02-23T05:04:49;100682.94;;;7.62;100.00
48553;BME280;34335;51.566;6.994;2023-02-23T05:07:14;100684.72;;;7.69;100.00
48553;BME280;34335;51.566;6.994;2023-02-23T05:09:39;100686.47;;;7.70;100.00
48553;BME280;34335;51.566;6.994;2023-02-23T05:12:05;100685.56;;;7.68;100.00
48553;BME280;34335;51.566;6.994;2023-02-23T05:14:30;100686.44;;;7.67;100.00
48553;BME280;34335;51.566;6.994;2023-02-23T05:16:56;100699.31;;;7.62;100.00
48553;BME280;34335;51.566;6.994;2023-02-23T05:19:21;100699.34;;;7.64;100.00
48553;BME280;34335;51.566;6.994;2023-02-23T05:21:47;100695.03;;;7.63;100.00
48553;BME280;34335;51.566;6.994;2023-02-23T05:24:14;100693.28;;;7.62;100.00
48553;BME280;34335;51.566;6.994;2023-02-23T05:26:41;100697.53;;;7.55;100.00
48553;BME280;34335;51.566;6.994;2023-02-23T05:29:06;100696.72;;;7.61;100.00
48553;BME280;34335;51.566;6.994;2023-02-23T05:31:31;100697.53;;;7.57;100.00
48553;BME280;34335;51.566;6.994;2023-02-23T05:33:57;100697.56;;;7.58;100.00
48553;BME280;34335;51.566;6.994;2023-02-23T05:36:23;100697.59;;;7.61;100.00
48553;BME280;34335;51.566;6.994;2023-02-23T05:38:48;100694.09;;;7.55;100.00
48553;BME280;34335;51.566;6.994;2023-02-23T05:41:16;100698.28;;;7.46;100.00
48553;BME280;34335;51.566;6.994;2023-02-23T05:43:42;100698.28;;;7.46;100.00
48553;BME280;34335;51.566;6.994;2023-02-23T05:46:13;100700.84;;;7.45;100.00
48553;BME280;34335;51.566;6.994;2023-02-23T05:48:39;100706.81;;;7.41;100.00
48553;BME280;34335;51.566;6.994;2023-02-23T05:51:07;100702.50;;;7.38;100.00
48553;BME280;34335;51.566;6.994;2023-02-23T05:53:33;100699.03;;;7.38;100.00
48553;BME280;34335;51.566;6.994;2023-02-23T05:56:00;100699.00;;;7.35;100.00
48553;BME280;34335;51.566;6.994;2023-02-23T05:58:26;100704.16;;;7.33;100.00
48553;BME280;34335;51.566;6.994;2023-02-23T06:00:51;100706.75;;;7.33;100.00
48553;BME280;34335;51.566;6.994;2023-02-23T06:03:17;100709.28;;;7.28;100.00
48553;BME280;34335;51.566;6.994;2023-02-23T06:05:49;100710.97;;;7.26;100.00
48553;BME280;34335;51.566;6.994;2023-02-23T06:08:14;100716.13;;;7.25;100.00
48553;BME280;34335;51.566;6.994;2023-02-23T06:10:40;100710.06;;;7.23;100.00
48553;BME280;34335;51.566;6.994;2023-02-23T06:13:05;100713.50;;;7.22;100.00
48553;BME280;34335;51.566;6.994;2023-02-23T06:15:33;100718.72;;;7.25;100.00
48553;BME280;34335;51.566;6.994;2023-02-23T06:17:58;100721.31;;;7.26;100.00
48553;BME280;34335;51.566;6.994;2023-02-23T06:20:24;100720.50;;;7.29;100.00
48553;BME280;34335;51.566;6.994;2023-02-23T06:22:49;100727.44;;;7.33;100.00
48553;BME280;34335;51.566;6.994;2023-02-23T06:25:14;100726.72;;;7.43;100.00
48553;BME280;34335;51.566;6.994;2023-02-23T06:27:40;100723.13;;;7.33;100.00
48553;BME280;34335;51.566;6.994;2023-02-23T06:30:07;100728.34;;;7.35;100.00
48553;BME280;34335;51.566;6.994;2023-02-23T06:32:32;100731.00;;;7.41;100.00
48553;BME280;34335;51.566;6.994;2023-02-23T06:34:58;100736.97;;;7.37;100.00
48553;BME280;34335;51.566;6.994;2023-02-23T06:37:24;100741.22;;;7.32;100.00
48553;BME280;34335;51.566;6.994;2023-02-23T06:39:49;100744.66;;;7.31;100.00
48553;BME280;34335;51.566;6.994;2023-02-23T06:42:15;100744.63;;;7.28;100.00
48553;BME280;34335;51.566;6.994;2023-02-23T06:44:40;100747.38;;;7.39;100.00
48553;BME280;34335;51.566;6.994;2023-02-23T06:47:06;100749.91;;;7.37;100.00
48553;BME280;34335;51.566;6.994;2023-02-23T06:49:31;100756.88;;;7.41;100.00
48553;BME280;34335;51.566;6.994;2023-02-23T06:51:56;100749.13;;;7.43;100.00
48553;BME280;34335;51.566;6.994;2023-02-23T06:54:22;100758.50;;;7.33;100.00
48553;BME280;34335;51.566;6.994;2023-02-23T06:56:47;100768.78;;;7.30;100.00
48553;BME280;34335;51.566;6.994;2023-02-23T06:59:14;100759.47;;;7.41;100.00
48553;BME280;34335;51.566;6.994;2023-02-23T07:01:39;100758.56;;;7.41;100.00
48553;BME280;34335;51.566;6.994;2023-02-23T07:04:06;100765.56;;;7.46;100.00
48553;BME280;34335;51.566;6.994;2023-02-23T07:06:31;100770.66;;;7.39;100.00
48553;BME280;34335;51.566;6.994;2023-02-23T07:08:57;100767.84;;;7.23;100.00
48553;BME280;34335;51.566;6.994;2023-02-23T07:11:22;100777.47;;;7.33;100.00
48553;BME280;34335;51.566;6.994;2023-02-23T07:13:47;100777.44;;;7.32;100.00
48553;BME280;34335;51.566;6.994;2023-02-23T07:16:13;100780.81;;;7.26;100.00
48553;BME280;34335;51.566;6.994;2023-02-23T07:18:40;100778.91;;;7.13;100.00
48553;BME280;34335;51.566;6.994;2023-02-23T07:21:05;100785.75;;;7.09;100.00
48553;BME280;34335;51.566;6.994;2023-02-23T07:23:31;100781.47;;;7.13;100.00
48553;BME280;34335;51.566;6.994;2023-02-23T07:25:57;100787.59;;;7.16;100.00
48553;BME280;34335;51.566;6.994;2023-02-23T07:28:24;100784.13;;;7.17;100.00
48553;BME280;34335;51.566;6.994;2023-02-23T07:30:54;100787.34;;;7.01;100.00
48553;BME280;34335;51.566;6.994;2023-02-23T07:33:20;100793.28;;;6.94;100.00
48553;BME280;34335;51.566;6.994;2023-02-23T07:35:45;100798.47;;;6.95;100.00
48553;BME280;34335;51.566;6.994;2023-02-23T07:38:11;100797.63;;;6.98;100.00
48553;BME280;34335;51.566;6.994;2023-02-23T07:40:37;100806.31;;;7.00;100.00
48553;BME280;34335;51.566;6.994;2023-02-23T07:43:03;100808.94;;;7.01;100.00
48553;BME280;34335;51.566;6.994;2023-02-23T07:45:28;100805.38;;;6.95;100.00
48553;BME280;34335;51.566;6.994;2023-02-23T07:47:54;100805.31;;;6.93;100.00
48553;BME280;34335;51.566;6.994;2023-02-23T07:50:19;100807.03;;;6.91;100.00
48553;BME280;34335;51.566;6.994;2023-02-23T07:52:44;100812.34;;;7.00;100.00
48553;BME280;34335;51.566;6.994;2023-02-23T07:55:10;100807.19;;;7.00;100.00
48553;BME280;34335;51.566;6.994;2023-02-23T07:57:36;100819.16;;;6.95;100.00
48553;BME280;34335;51.566;6.994;2023-02-23T08:00:03;100820.97;;;6.99;100.00
48553;BME280;34335;51.566;6.994;2023-02-23T08:02:29;100813.06;;;6.92;100.00
48553;BME280;34335;51.566;6.994;2023-02-23T08:04:56;100821.88;;;7.03;100.00
48553;BME280;34335;51.566;6.994;2023-02-23T08:07:22;100820.91;;;6.96;100.00
48553;BME280;34335;51.566;6.994;2023-02-23T08:09:47;100822.44;;;6.85;100.00
48553;BME280;34335;51.566;6.994;2023-02-23T08:12:13;100821.66;;;6.88;100.00
48553;BME280;34335;51.566;6.994;2023-02-23T08:14:40;100831.88;;;6.83;100.00
48553;BME280;34335;51.566;6.994;2023-02-23T08:20:27;100837.19;;;6.91;100.00
48553;BME280;34335;51.566;6.994;2023-02-23T08:22:53;100835.44;;;6.90;100.00
48553;BME280;34335;51.566;6.994;2023-02-23T08:25:19;100833.69;;;6.89;100.00
48553;BME280;34335;51.566;6.994;2023-02-23T08:27:44;100829.25;;;6.80;100.00
48553;BME280;34335;51.566;6.994;2023-02-23T08:30:10;100845.00;;;6.94;100.00
48553;BME280;34335;51.566;6.994;2023-02-23T08:32:38;100849.22;;;6.89;100.00
48553;BME280;34335;51.566;6.994;2023-02-23T08:35:04;100854.50;;;6.95;100.00
48553;BME280;34335;51.566;6.994;2023-02-23T08:37:30;100848.44;;;6.94;100.00
48553;BME280;34335;51.566;6.994;2023-02-23T08:39:56;100849.25;;;6.90;100.00
48553;BME280;34335;51.566;6.994;2023-02-23T08:42:22;100852.00;;;6.99;100.00
48553;BME280;34335;51.566;6.994;2023-02-23T08:44:47;100848.59;;;7.04;100.00
48553;BME280;34335;51.566;6.994;2023-02-23T08:47:15;100852.16;;;7.10;100.00
48553;BME280;34335;51.566;6.994;2023-02-23T08:49:42;100848.66;;;7.07;100.00
48553;BME280;34335;51.566;6.994;2023-02-23T08:52:07;100855.34;;;6.95;100.00
48553;BME280;34335;51.566;6.994;2023-02-23T08:54:32;100862.28;;;6.98;100.00
48553;BME280;34335;51.566;6.994;2023-02-23T08:56:58;100855.34;;;6.95;100.00
48553;BME280;34335;51.566;6.994;2023-02-23T08:59:23;100860.50;;;6.94;100.00
48553;BME280;34335;51.566;6.994;2023-02-23T09:01:50;100856.97;;;6.89;100.00
48553;BME280;34335;51.566;6.994;2023-02-23T09:04:16;100858.75;;;6.91;100.00
48553;BME280;34335;51.566;6.994;2023-02-23T09:06:42;100857.78;;;6.86;100.00
48553;BME280;34335;51.566;6.994;2023-02-23T09:09:08;100865.53;;;6.86;100.00
48553;BME280;34335;51.566;6.994;2023-02-23T09:11:33;100858.47;;;6.76;100.00
48553;BME280;34335;51.566;6.994;2023-02-23T09:13:59;100865.47;;;6.83;100.00
48553;BME280;34335;51.566;6.994;2023-02-23T09:16:24;100871.69;;;6.93;100.00
48553;BME280;34335;51.566;6.994;2023-02-23T09:18:49;100870.84;;;6.94;100.00
48553;BME280;34335;51.566;6.994;2023-02-23T09:21:17;100870.84;;;6.92;100.00
48553;BME280;34335;51.566;6.994;2023-02-23T09:23:45;100868.91;;;6.80;100.00
48553;BME280;34335;51.566;6.994;2023-02-23T09:26:15;100869.84;;;6.85;100.00
48553;BME280;34335;51.566;6.994;2023-02-23T09:28:42;100871.78;;;6.99;100.00
48553;BME280;34335;51.566;6.994;2023-02-23T09:31:10;100871.78;;;6.99;100.00
48553;BME280;34335;51.566;6.994;2023-02-23T09:33:35;100871.94;;;7.08;100.00
48553;BME280;34335;51.566;6.994;2023-02-23T09:36:09;100872.97;;;7.16;100.00
48553;BME280;34335;51.566;6.994;2023-02-23T09:38:41;100876.47;;;7.22;100.00
48553;BME280;34335;51.566;6.994;2023-02-23T09:43:56;100884.63;;;7.48;100.00
48553;BME280;34335;51.566;6.994;2023-02-23T09:46:35;100889.94;;;7.57;100.00
48553;BME280;34335;51.566;6.994;2023-02-23T09:49:07;100896.03;;;7.61;100.00
48553;BME280;34335;51.566;6.994;2023-02-23T09:51:39;100895.13;;;7.59;100.00
48553;BME280;34335;51.566;6.994;2023-02-23T09:54:10;100897.59;;;7.49;100.00
48553;BME280;34335;51.566;6.994;2023-02-23T09:56:42;100889.75;;;7.45;100.00
48553;BME280;34335;51.566;6.994;2023-02-23T09:59:14;100895.91;;;7.52;100.00
48553;BME280;34335;51.566;6.994;2023-02-23T10:04:32;100901.91;;;7.51;100.00
48553;BME280;34335;51.566;6.994;2023-02-23T10:12:25;100907.41;;;7.72;100.00
48553;BME280;34335;51.566;6.994;2023-02-23T10:17:35;100914.09;;;7.58;100.00
48553;BME280;34335;51.566;6.994;2023-02-23T10:22:33;100915.56;;;7.40;100.00
48553;BME280;34335;51.566;6.994;2023-02-23T10:25:04;100919.88;;;7.40;100.00
48553;BME280;34335;51.566;6.994;2023-02-23T10:27:43;100924.44;;;7.58;100.00
48553;BME280;34335;51.566;6.994;2023-02-23T10:30:35;100926.31;;;7.67;100.00
48553;BME280;34335;51.566;6.994;2023-02-23T10:35:29;100914.78;;;7.46;100.00
48553;BME280;34335;51.566;6.994;2023-02-23T10:37:56;100922.59;;;7.49;100.00
48553;BME280;34335;51.566;6.994;2023-02-23T10:40:24;100921.63;;;7.42;100.00
48553;BME280;34335;51.566;6.994;2023-02-23T10:42:52;100929.25;;;7.33;100.00
48553;BME280;34335;51.566;6.994;2023-02-23T10:45:23;100921.50;;;7.35;100.00
48553;BME280;34335;51.566;6.994;2023-02-23T10:48:01;100923.53;;;7.53;100.00
48553;BME280;34335;51.566;6.994;2023-02-23T10:50:29;100925.19;;;7.49;100.00
48553;BME280;34335;51.566;6.994;2023-02-23T10:53:00;100933.28;;;7.15;100.00
48553;BME280;34335;51.566;6.994;2023-02-23T10:55:30;100926.94;;;7.52;100.00
48553;BME280;34335;51.566;6.994;2023-02-23T10:58:22;100921.53;;;7.36;100.00
48553;BME280;34335;51.566;6.994;2023-02-23T11:00:59;100921.00;;;7.59;100.00
48553;BME280;34335;51.566;6.994;2023-02-23T11:05:55;100924.31;;;7.48;100.00
48553;BME280;34335;51.566;6.994;2023-02-23T11:08:29;100920.19;;;7.06;100.00
48553;BME280;34335;51.566;6.994;2023-02-23T11:10:56;100934.47;;;7.36;100.00
48553;BME280;34335;51.566;6.994;2023-02-23T11:13:23;100934.28;;;7.24;100.00
48553;BME280;34335;51.566;6.994;2023-02-23T11:15:58;100940.09;;;7.12;100.00
48553;BME280;34335;51.566;6.994;2023-02-23T11:18:24;100935.94;;;7.20;100.00
48553;BME280;34335;51.566;6.994;2023-02-23T11:20:50;100947.59;;;6.95;100.00
48553;BME280;34335;51.566;6.994;2023-02-23T11:23:24;100943.94;;;6.85;100.00
48553;BME280;34335;51.566;6.994;2023-02-23T11:25:58;100934.22;;;7.22;100.00
48553;BME280;34335;51.566;6.994;2023-02-23T11:28:30;100936.50;;;7.04;100.00
48553;BME280;34335;51.566;6.994;2023-02-23T11:31:00;100935.41;;;7.40;100.00
48553;BME280;34335;51.566;6.994;2023-02-23T11:33:30;100929.19;;;7.28;100.00
48553;BME280;34335;51.566;6.994;2023-02-23T11:36:13;100931.78;;;7.28;100.00
48553;BME280;34335;51.566;6.994;2023-02-23T11:38:38;100933.47;;;7.28;100.00
48553;BME280;34335;51.566;6.994;2023-02-23T11:41:16;100934.44;;;7.35;100.00
48553;BME280;34335;51.566;6.994;2023-02-23T11:43:50;100935.34;;;7.38;100.00
48553;BME280;34335;51.566;6.994;2023-02-23T11:46:17;100930.41;;;7.52;100.00
48553;BME280;34335;51.566;6.994;2023-02-23T11:48:57;100928.34;;;7.31;100.00
48553;BME280;34335;51.566;6.994;2023-02-23T11:51:25;100936.28;;;7.42;100.00
48553;BME280;34335;51.566;6.994;2023-02-23T11:53:51;100930.09;;;7.30;100.00
48553;BME280;34335;51.566;6.994;2023-02-23T11:56:19;100927.31;;;7.20;100.00
48553;BME280;34335;51.566;6.994;2023-02-23T11:58:48;100930.69;;;7.15;100.00
48553;BME280;34335;51.566;6.994;2023-02-23T12:01:17;100924.16;;;7.39;100.00
48553;BME280;34335;51.566;6.994;2023-02-23T12:03:48;100931.16;;;7.46;100.00
48553;BME280;34335;51.566;6.994;2023-02-23T12:06:41;100923.47;;;7.49;100.00
48553;BME280;34335;51.566;6.994;2023-02-23T12:09:26;100917.16;;;7.32;100.00
48553;BME280;34335;51.566;6.994;2023-02-23T12:12:01;100918.91;;;7.33;100.00
48553;BME280;34335;51.566;6.994;2023-02-23T12:14:36;100919.00;;;7.39;100.00
48553;BME280;34335;51.566;6.994;2023-02-23T12:17:13;100913.09;;;7.49;100.00
48553;BME280;34335;51.566;6.994;2023-02-23T12:19:45;100919.13;;;7.48;100.00
48553;BME280;34335;51.566;6.994;2023-02-23T12:22:18;100915.63;;;7.46;100.00
48553;BME280;34335;51.566;6.994;2023-02-23T12:27:20;100924.25;;;7.45;100.00
48553;BME280;34335;51.566;6.994;2023-02-23T12:29:57;100928.50;;;7.40;100.00
48553;BME280;34335;51.566;6.994;2023-02-23T12:32:46;100925.00;;;7.37;100.00
48553;BME280;34335;51.566;6.994;2023-02-23T12:35:49;100920.59;;;7.31;100.00
48553;BME280;34335;51.566;6.994;2023-02-23T12:38:43;100919.53;;;7.20;100.00
48553;BME280;34335;51.566;6.994;2023-02-23T12:41:13;100928.19;;;7.22;100.00
48553;BME280;34335;51.566;6.994;2023-02-23T12:43:47;100926.59;;;7.30;100.00
48553;BME280;34335;51.566;6.994;2023-02-23T12:46:28;100922.25;;;7.27;100.00
48553;BME280;34335;51.566;6.994;2023-02-23T12:51:32;100922.97;;;7.17;100.00
48553;BME280;34335;51.566;6.994;2023-02-23T12:54:00;100924.69;;;7.18;100.00
48553;BME280;34335;51.566;6.994;2023-02-23T12:56:32;100922.06;;;7.15;100.00
48553;BME280;34335;51.566;6.994;2023-02-23T13:01:53;100918.78;;;7.27;100.00
48553;BME280;34335;51.566;6.994;2023-02-23T13:10:21;100926.41;;;7.17;100.00
48553;BME280;34335;51.566;6.994;2023-02-23T13:13:19;100919.53;;;7.18;100.00
48553;BME280;34335;51.566;6.994;2023-02-23T13:21:28;100924.69;;;7.16;100.00
48553;BME280;34335;51.566;6.994;2023-02-23T13:24:07;100927.38;;;7.23;100.00
48553;BME280;34335;51.566;6.994;2023-02-23T13:29:25;100933.22;;;7.11;100.00
48553;BME280;34335;51.566;6.994;2023-02-23T13:31:57;100933.00;;;7.00;100.00
48553;BME280;34335;51.566;6.994;2023-02-23T13:34:29;100935.81;;;7.12;100.00
48553;BME280;34335;51.566;6.994;2023-02-23T13:36:56;100937.25;;;6.95;100.00
48553;BME280;34335;51.566;6.994;2023-02-23T13:42:10;100945.91;;;6.97;100.00
48553;BME280;34335;51.566;6.994;2023-02-23T13:47:57;100936.47;;;7.00;100.00
48553;BME280;34335;51.566;6.994;2023-02-23T13:50:42;100945.00;;;6.96;100.00
48553;BME280;34335;51.566;6.994;2023-02-23T13:53:31;100933.84;;;6.99;100.00
48553;BME280;34335;51.566;6.994;2023-02-23T13:56:01;100935.50;;;6.94;100.00
48553;BME280;34335;51.566;6.994;2023-02-23T13:58:29;100927.59;;;6.86;100.00
48553;BME280;34335;51.566;6.994;2023-02-23T14:01:08;100934.66;;;6.95;100.00
48553;BME280;34335;51.566;6.994;2023-02-23T14:03:40;100925.47;;;7.12;100.00
48553;BME280;34335;51.566;6.994;2023-02-23T14:06:06;100922.47;;;6.88;100.00
48553;BME280;34335;51.566;6.994;2023-02-23T14:08:35;100926.41;;;7.17;100.00
48553;BME280;34335;51.566;6.994;2023-02-23T14:11:01;100916.94;;;7.18;100.00
48553;BME280;34335;51.566;6.994;2023-02-23T14:13:33;100928.81;;;7.05;100.00
48553;BME280;34335;51.566;6.994;2023-02-23T14:16:12;100918.56;;;7.11;100.00
48553;BME280;34335;51.566;6.994;2023-02-23T14:24:17;100930.41;;;6.98;100.00
48553;BME280;34335;51.566;6.994;2023-02-23T14:43:54;100932.38;;;7.13;100.00
48553;BME280;34335;51.566;6.994;2023-02-23T14:46:24;100931.00;;;7.34;100.00